• Join FlightAware (Why Join?)
  • Login
  • US Flag 
10:20AM EDT


 

Airport Tracker/Info


-or-


 

Live Flight TrackerFlight Track Log ✈ ASQ5740 ✈ 17-Apr-2013 ✈ KIAD - KBTV

Flight Track Log - Related Links

Times and Time Zones

All times are in EDT time to prevent confusion due to time zone crossing. See the ASQ5740 flight status page for this flight to view local times or setup timezone preferences in your user account.

Time Position Orientation Groundspeed Altitude Reporting Facility
EDT Latitude Longitude Course Direction KTS MPH feet Rate Location/Type
12:41PM 38.9833 -77.4500 72° East 187 215 2,200  Level Potomac TRACON
12:42PM 39.0500 -77.4500 360° North 256 295 4,700 2,760 Climbing Potomac TRACON
12:43PM 39.1167 -77.4500 360° North 269 310 7,500 2,520 Climbing Potomac TRACON
12:44PM 39.0167 -76.9589 90° East  Level FlightAware Approximate
12:44PM 39.1667 -77.3667 52° Northeast 309 356 9,800  Level Potomac TRACON
12:45PM 39.0449 -76.8373 72° East  Level FlightAware Approximate
12:46PM 39.0593 -76.7128 72° East  Level FlightAware Approximate
12:46PM 39.0917 -77.0892 109° East 357 411 14,000  Level Washington Center
12:47PM 39.0953 -76.9608 88° East 351 404 16,700 2,100 Climbing Washington Center
12:48PM 39.1089 -76.8569 80° East 335 386 18,200 1,140 Climbing Washington Center
12:49PM 39.0894 -76.7281 101° East 335 386 19,000 360 Climbing Washington Center
12:50PM 39.0550 -76.6100 111° Southeast 340 391 19,000 540 Level Washington Center
12:51PM 39.0247 -76.4894 108° East 346 398 20,100 840 Climbing Washington Center
12:52PM 39.0108 -76.3583 98° East 352 405 20,700 540 Climbing Washington Center
12:53PM 39.0597 -76.2306 64° Northeast 357 411 21,200 480 Climbing Washington Center
12:54PM 39.1103 -76.0944 64° Northeast 385 443 21,700 600 Climbing Washington Center
12:55PM 39.1628 -75.9583 64° Northeast 400 460 22,500 720 Climbing Washington Center
12:56PM 39.2278 -75.8300 57° Northeast 412 474 23,200 600 Climbing Washington Center
12:57PM 39.3133 -75.7231 44° Northeast 417 480 23,800 540 Climbing Washington Center
12:58PM 39.3989 -75.6131 45° Northeast 422 486 24,300 480 Climbing Washington Center
12:59PM 39.4886 -75.5003 44° Northeast 432 497 24,800 480 Climbing Washington Center
01:00PM 39.5781 -75.3842 45° Northeast 437 503 25,300 480 Climbing Washington Center
01:01PM 39.6631 -75.2681 46° Northeast 437 503 25,800 540 Climbing Washington Center
01:02PM 39.7489 -75.1450 48° Northeast 450 518 26,400 480 Climbing New York Center
01:03PM 39.8281 -75.0336 47° Northeast 438 504 26,800 480 Climbing New York Center
01:04PM 39.9194 -74.9283 41° Northeast 438 504 27,400 540 Climbing New York Center
01:05PM 40.0194 -74.8067 43° Northeast 438 504 27,900 480 Climbing New York Center
01:06PM 40.1019 -74.7083 42° Northeast 438 504 28,400 480 Climbing New York Center
01:07PM 40.2039 -74.5892 42° Northeast 432 497 28,900 480 Climbing New York Center
01:08PM 40.2994 -74.4719 43° Northeast 441 507 29,400 480 Climbing New York Center
01:09PM 40.3903 -74.3597 43° Northeast 441 507 29,900 480 Climbing New York Center
01:10PM 40.4872 -74.2556 39° Northeast 447 514 30,400 480 Climbing New York Center
01:11PM 40.5986 -74.2231 12° North 416 479 30,900 180 Climbing New York Center
01:13PM 40.7844 -74.1806 10° North 411 473 31,000  Climbing Boston Center
01:14PM 40.9014 -74.1481 12° North 422 486 31,000  Level Boston Center
01:15PM 41.0167 -74.1181 11° North 422 486 31,000  Level Boston Center
01:16PM 41.1297 -74.0881 11° North 422 486 31,000  Level Boston Center
01:17PM 41.2425 -74.0550 12° North 417 480 31,000  Level Boston Center
01:18PM 41.3325 -74.0353 North 410 472 31,000  Level Boston Center
01:19PM 41.4644 -73.9969 12° North 410 472 31,000  Level Boston Center
01:20PM 41.5753 -73.9692 11° North 410 472 31,000  Level Boston Center
01:21PM 41.6839 -73.9356 13° North 404 465 31,000  Level Boston Center
01:22PM 41.7928 -73.9075 11° North 398 458 31,000  Level Boston Center
01:23PM 41.8931 -73.8847 10° North 382 440 31,000  Level Boston Center
01:24PM 42.0017 -73.8594 10° North 382 440 31,000  Level Boston Center
01:25PM 42.1125 -73.8283 12° North 394 453 31,000  Level Boston Center
01:26PM 42.2214 -73.7969 12° North 394 453 31,000  Level Boston Center
01:27PM 42.3322 -73.7686 11° North 394 453 31,000  Level Boston Center
01:28PM 42.4408 -73.7400 11° North 394 453 31,000  Level Boston Center
01:29PM 42.5539 -73.7083 12° North 394 453 31,000  Level Boston Center
01:30PM 42.6625 -73.6767 12° North 394 453 31,000  Level Boston Center
01:31PM 42.7753 -73.6478 11° North 394 453 31,000  Level Boston Center
01:32PM 42.8819 -73.6131 13° North 394 453 31,000  Level Boston Center
01:33PM 42.9928 -73.5842 11° North 394 453 31,000  Level Boston Center
01:34PM 43.1036 -73.5519 12° North 394 453 31,000 -660 Level Boston Center
01:35PM 43.2164 -73.5228 11° North 399 459 29,700 -1,920 Descending Boston Center
01:36PM 43.3333 -73.4906 11° North 412 474 27,200 -2,580 Descending Boston Center
01:37PM 43.4442 -73.4581 12° North 412 474 24,500 -2,820 Descending Boston Center
01:38PM 43.5506 -73.4283 11° North 397 457 21,700 -3,120 Descending Boston Center
01:39PM 43.6656 -73.3931 13° North 391 450 18,400 -2,880 Descending Boston Center
01:40PM 43.7636 -73.3686 10° North 378 435 15,900 -2,580 Descending Boston Center
01:41PM 43.8619 -73.3386 12° North 359 413 13,200 -2,460 Descending Boston Center
01:42PM 43.9581 -73.3111 12° North 352 405 11,100 -1,080 Descending Boston Center
01:43PM 44.0458 -73.2719 18° North 341 392 11,100 -960 Level Boston Center
01:44PM 44.1150 -73.2181 29° Northeast 297 342 9,200 -1,920 Descending Boston Center
01:45PM 44.1797 -73.1694 28° Northeast 272 313 7,300 -1,920 Descending Boston Center
01:46PM 44.2467 -73.1269 24° Northeast 261 300 5,400 -1,620 Descending Boston Center
01:47PM 44.3075 -73.0842 27° Northeast 250 288 4,100 -1,080 Descending Boston Center
01:48PM 44.3575 -73.0586 20° North 215 247 3,300 -960 Descending Boston Center
01:49PM 44.4033 -73.0647 355° North 178 205 2,300 -1,080 Descending Boston Center